createdAt,value
2019-02-26T00:00:42.349Z,79.89
2019-02-26T00:02:50.686Z,79.85
2019-02-26T00:04:58.594Z,79.70
2019-02-26T00:07:05.622Z,79.52
2019-02-26T00:09:12.293Z,79.64
2019-02-26T00:11:18.986Z,79.48
2019-02-26T00:13:27.241Z,79.50
2019-02-26T00:15:35.857Z,79.49
2019-02-26T00:17:45.651Z,79.38
2019-02-26T00:19:51.206Z,79.46
2019-02-26T00:21:57.879Z,79.59
2019-02-26T00:24:05.021Z,79.35
2019-02-26T00:26:14.966Z,79.36
2019-02-26T00:28:22.097Z,79.37
2019-02-26T00:30:29.035Z,79.58
2019-02-26T00:32:36.602Z,79.42
2019-02-26T00:34:44.060Z,79.52
2019-02-26T00:36:50.774Z,79.58
2019-02-26T00:38:58.419Z,79.43
2019-02-26T00:41:06.135Z,79.50
2019-02-26T00:43:12.851Z,79.62
2019-02-26T00:45:22.390Z,79.25
2019-02-26T00:47:29.851Z,79.08
2019-02-26T00:49:36.348Z,79.25
2019-02-26T00:51:45.973Z,79.32
2019-02-26T00:53:53.331Z,79.39
2019-02-26T00:56:01.034Z,79.48
2019-02-26T00:58:10.746Z,79.45
2019-02-26T01:00:18.664Z,79.23
2019-02-26T01:02:25.372Z,79.02
2019-02-26T01:04:32.109Z,79.25
2019-02-26T01:06:39.526Z,79.10
2019-02-26T01:08:47.102Z,79.37
2019-02-26T01:10:54.041Z,79.39
2019-02-26T01:13:01.458Z,79.28
2019-02-26T01:15:21.464Z,79.26
2019-02-26T01:17:27.260Z,79.05
2019-02-26T01:19:34.199Z,79.19
2019-02-26T01:21:42.202Z,79.29
2019-02-26T01:23:48.896Z,79.14
2019-02-26T01:25:55.742Z,79.07
2019-02-26T01:28:02.439Z,78.90
2019-02-26T01:30:21.156Z,79.03
2019-02-26T01:32:24.909Z,78.92
2019-02-26T01:34:31.712Z,78.87
2019-02-26T01:36:40.246Z,78.92
2019-02-26T01:38:48.702Z,79.02
2019-02-26T01:40:55.970Z,79.21
2019-02-26T01:43:03.887Z,79.09
2019-02-26T01:45:13.844Z,79.06
2019-02-26T01:47:21.838Z,79.08
2019-02-26T01:49:28.978Z,78.84
2019-02-26T01:51:35.648Z,78.98
2019-02-26T01:53:44.433Z,79.05
2019-02-26T01:55:51.813Z,79.07
2019-02-26T01:57:59.206Z,78.99
2019-02-26T02:00:12.725Z,78.97
2019-02-26T02:02:20.417Z,79.10
2019-02-26T02:04:27.857Z,79.23
2019-02-26T02:06:36.647Z,79.03
2019-02-26T02:08:45.919Z,79.01
2019-02-26T02:10:56.284Z,79.10
2019-02-26T02:13:02.840Z,79.19
2019-02-26T02:15:14.910Z,79.13
2019-02-26T02:17:20.970Z,79.03
2019-02-26T02:19:30.206Z,78.98
2019-02-26T02:21:37.564Z,78.85
2019-02-26T02:23:46.433Z,78.91
2019-02-26T02:25:52.716Z,78.76
2019-02-26T02:28:02.677Z,78.52
2019-02-26T02:30:22.385Z,78.36
2019-02-26T02:32:28.530Z,78.19
2019-02-26T02:34:36.754Z,78.16
2019-02-26T02:36:42.979Z,78.12
2019-02-26T02:38:49.691Z,78.20
2019-02-26T02:40:56.422Z,78.25
2019-02-26T02:43:04.642Z,78.16
2019-02-26T02:45:17.011Z,78.18
2019-02-26T02:47:25.055Z,78.03
2019-02-26T02:49:32.708Z,78.10
2019-02-26T02:51:39.596Z,77.96
2019-02-26T02:53:47.800Z,77.85
2019-02-26T02:55:54.740Z,77.83
2019-02-26T02:58:01.481Z,77.77
2019-02-26T03:00:15.960Z,77.86
2019-02-26T03:02:23.072Z,77.88
2019-02-26T03:04:31.691Z,77.84
2019-02-26T03:06:38.743Z,77.77
2019-02-26T03:08:47.813Z,77.95
2019-02-26T03:10:54.107Z,78.09
2019-02-26T03:13:02.844Z,78.13
2019-02-26T03:15:17.417Z,78.06
2019-02-26T03:17:24.101Z,77.97
2019-02-26T03:19:32.660Z,77.86
2019-02-26T03:21:39.208Z,78.02
2019-02-26T03:23:45.926Z,78.15
2019-02-26T03:25:54.891Z,77.93
2019-02-26T03:28:00.948Z,77.89
2019-02-26T03:30:20.562Z,77.88
2019-02-26T03:32:20.462Z,77.91
2019-02-26T03:34:27.175Z,77.77
2019-02-26T03:36:36.784Z,77.91
2019-02-26T03:38:44.174Z,77.81
2019-02-26T03:40:51.989Z,77.94
2019-02-26T03:42:59.001Z,78.03
2019-02-26T03:45:09.180Z,78.17
2019-02-26T03:47:16.290Z,78.14
2019-02-26T03:49:27.117Z,78.24
2019-02-26T03:51:32.681Z,78.27
2019-02-26T03:53:41.723Z,78.27
2019-02-26T03:55:47.932Z,78.12
2019-02-26T03:57:57.001Z,78.17
2019-02-26T04:00:06.032Z,78.11
2019-02-26T04:02:14.965Z,78.11
2019-02-26T04:04:22.940Z,78.14
2019-02-26T04:06:30.612Z,78.09
2019-02-26T04:08:37.773Z,78.12
2019-02-26T04:10:47.239Z,78.18
2019-02-26T04:12:55.350Z,78.14
2019-02-26T04:15:00.927Z,78.06
2019-02-26T04:17:08.999Z,78.23
2019-02-26T04:19:15.824Z,78.33
2019-02-26T04:21:22.579Z,78.25
2019-02-26T04:23:29.240Z,78.22
2019-02-26T04:25:59.903Z,78.38
2019-02-26T04:28:27.355Z,78.46
2019-02-26T04:30:53.523Z,78.63
2019-02-26T04:33:14.099Z,78.59
2019-02-26T04:35:23.755Z,78.65
2019-02-26T04:37:58.344Z,78.65
2019-02-26T04:40:17.046Z,78.65
2019-02-26T04:42:48.907Z,78.72
2019-02-26T04:45:28.423Z,78.79
2019-02-26T04:48:01.780Z,78.69
2019-02-26T04:50:09.163Z,78.72
2019-02-26T04:52:17.308Z,78.76
2019-02-26T04:54:26.989Z,78.74
2019-02-26T04:56:36.037Z,78.63
2019-02-26T04:58:42.586Z,78.63
2019-02-26T05:00:49.416Z,78.38
2019-02-26T05:02:56.164Z,78.62
2019-02-26T05:05:02.829Z,78.60
2019-02-26T05:07:12.762Z,78.53
2019-02-26T05:09:17.890Z,78.54
2019-02-26T05:11:31.582Z,78.68
2019-02-26T05:13:34.606Z,78.64
2019-02-26T05:15:43.458Z,78.63
2019-02-26T05:17:49.769Z,78.76
2019-02-26T05:19:56.467Z,78.81
2019-02-26T05:22:04.444Z,78.83
2019-02-26T05:24:13.094Z,78.84
2019-02-26T05:26:20.802Z,78.79
2019-02-26T05:28:29.918Z,78.62
2019-02-26T05:30:37.810Z,78.57
2019-02-26T05:32:45.273Z,78.76
2019-02-26T05:34:51.946Z,78.71
2019-02-26T05:36:59.750Z,78.93
2019-02-26T05:39:08.198Z,79.01
2019-02-26T05:41:14.938Z,79.07
2019-02-26T05:43:23.160Z,79.20
2019-02-26T05:45:32.423Z,79.11
2019-02-26T05:47:38.423Z,79.18
2019-02-26T05:49:45.804Z,79.03
2019-02-26T05:51:53.533Z,78.96
2019-02-26T05:54:02.225Z,79.04
2019-02-26T05:56:11.610Z,79.00
2019-02-26T05:58:21.234Z,78.89
2019-02-26T06:00:30.572Z,78.70
2019-02-26T06:02:37.401Z,78.63
2019-02-26T06:04:46.698Z,78.63
2019-02-26T06:06:56.409Z,78.74
2019-02-26T06:09:03.114Z,78.62
2019-02-26T06:11:11.480Z,78.52
2019-02-26T06:13:18.143Z,78.31
2019-02-26T06:15:25.959Z,78.07
2019-02-26T06:17:35.212Z,78.10
2019-02-26T06:19:51.753Z,78.23
2019-02-26T06:21:58.501Z,78.08
2019-02-26T06:24:05.245Z,78.07
2019-02-26T06:26:14.876Z,77.86
2019-02-26T06:28:20.565Z,77.64
2019-02-26T06:30:27.188Z,77.49
2019-02-26T06:32:35.185Z,77.05
2019-02-26T06:34:42.290Z,75.47
2019-02-26T06:36:51.047Z,72.88
2019-02-26T06:38:58.889Z,71.39
2019-02-26T06:41:05.777Z,73.17
2019-02-26T06:43:12.557Z,74.10
2019-02-26T06:45:19.312Z,74.76
2019-02-26T06:47:28.364Z,71.60
2019-02-26T06:49:34.390Z,70.24
2019-02-26T06:51:42.858Z,70.73
2019-02-26T06:53:51.623Z,71.70
2019-02-26T06:55:58.585Z,68.56
2019-02-26T06:58:21.315Z,69.50
2019-02-26T07:00:29.370Z,70.78
2019-02-26T07:02:36.177Z,69.10
2019-02-26T07:04:42.836Z,62.61
2019-02-26T07:06:49.496Z,64.29
2019-02-26T07:08:56.259Z,66.38
2019-02-26T07:11:03.815Z,62.88
2019-02-26T07:13:12.299Z,61.46
2019-02-26T07:15:19.144Z,62.59
2019-02-26T07:17:26.957Z,53.39
2019-02-26T07:19:35.788Z,50.71
2019-02-26T07:21:43.432Z,50.37
2019-02-26T07:23:51.533Z,53.35
2019-02-26T07:25:59.371Z,51.29
2019-02-26T07:28:06.064Z,50.12
2019-02-26T07:30:13.534Z,50.18
2019-02-26T07:32:21.990Z,50.07
2019-02-26T07:34:28.603Z,49.61
2019-02-26T07:36:35.299Z,48.47
2019-02-26T07:38:44.219Z,45.73
2019-02-26T07:40:50.386Z,47.96
2019-02-26T07:42:57.059Z,47.47
2019-02-26T07:45:04.343Z,46.16
2019-02-26T07:47:12.101Z,42.72
2019-02-26T07:49:19.972Z,38.28
2019-02-26T07:51:26.723Z,39.00
2019-02-26T07:53:33.433Z,38.24
2019-02-26T07:55:42.280Z,37.06
2019-02-26T07:57:50.672Z,33.22
2019-02-26T07:59:56.985Z,31.45
2019-02-26T08:02:06.160Z,28.91
2019-02-26T08:04:13.594Z,27.49
2019-02-26T08:06:20.551Z,32.30
2019-02-26T08:08:27.217Z,36.57
2019-02-26T08:10:37.207Z,41.39
2019-02-26T08:12:42.683Z,46.64
2019-02-26T08:14:50.154Z,48.49
2019-02-26T08:16:59.438Z,51.10
2019-02-26T08:19:05.202Z,53.02
2019-02-26T08:21:11.751Z,54.79
2019-02-26T08:23:19.880Z,56.54
2019-02-26T08:25:26.786Z,57.17
2019-02-26T08:27:35.553Z,58.25
2019-02-26T08:29:41.828Z,58.36
2019-02-26T08:31:49.522Z,58.90
2019-02-26T08:33:56.832Z,58.58
2019-02-26T08:36:03.565Z,59.16
2019-02-26T08:38:10.314Z,59.40
2019-02-26T08:40:16.990Z,59.36
2019-02-26T08:42:23.636Z,59.72
2019-02-26T08:44:30.404Z,59.73
2019-02-26T08:46:39.870Z,59.84
2019-02-26T08:48:48.350Z,59.84
2019-02-26T08:50:56.045Z,59.84
2019-02-26T08:53:02.786Z,59.85
2019-02-26T08:55:15.520Z,59.52
2019-02-26T08:57:21.408Z,60.00
2019-02-26T08:59:28.157Z,60.25
2019-02-26T09:01:34.832Z,60.10
2019-02-26T09:03:41.511Z,60.05
2019-02-26T09:05:49.358Z,59.95
2019-02-26T09:07:56.575Z,59.78
2019-02-26T09:10:03.331Z,59.85
2019-02-26T09:12:10.009Z,59.29
2019-02-26T09:14:16.772Z,59.83
2019-02-26T09:16:25.677Z,59.87
2019-02-26T09:18:35.532Z,59.71
2019-02-26T09:20:40.297Z,59.61
2019-02-26T09:22:50.211Z,59.55
2019-02-26T09:24:56.924Z,59.22
2019-02-26T09:27:05.060Z,59.46
2019-02-26T09:29:12.729Z,58.93
2019-02-26T09:31:20.228Z,58.94
2019-02-26T09:33:30.505Z,58.58
2019-02-26T09:35:35.301Z,58.62
2019-02-26T09:37:42.804Z,58.28
2019-02-26T09:39:52.051Z,58.28
2019-02-26T09:41:59.321Z,58.34
2019-02-26T09:44:08.971Z,58.25
2019-02-26T09:46:18.380Z,58.29
2019-02-26T09:48:24.109Z,58.10
2019-02-26T09:50:30.770Z,57.85
2019-02-26T09:52:37.453Z,57.36
2019-02-26T09:54:46.397Z,56.94
2019-02-26T09:56:52.601Z,56.71
2019-02-26T09:58:59.340Z,56.75
2019-02-26T10:01:06.899Z,57.28
2019-02-26T10:03:15.076Z,57.35
2019-02-26T10:05:21.806Z,57.21
2019-02-26T10:07:30.706Z,56.66
2019-02-26T10:09:38.213Z,56.78
2019-02-26T10:11:47.477Z,56.97
2019-02-26T10:13:53.751Z,56.49
2019-02-26T10:16:02.003Z,56.86
2019-02-26T10:18:09.514Z,56.69
2019-02-26T10:20:29.678Z,57.01
2019-02-26T10:22:36.300Z,56.90
2019-02-26T10:24:42.638Z,55.74
2019-02-26T10:26:49.346Z,55.83
2019-02-26T10:29:03.332Z,56.00
2019-02-26T10:31:07.781Z,55.31
2019-02-26T10:33:17.560Z,55.31
2019-02-26T10:35:33.375Z,55.04
2019-02-26T10:37:39.101Z,54.37
2019-02-26T10:39:47.965Z,54.14
2019-02-26T10:41:54.991Z,54.12
2019-02-26T10:44:01.721Z,54.20
2019-02-26T10:46:08.492Z,54.29
2019-02-26T10:48:16.792Z,53.91
2019-02-26T10:50:31.315Z,53.63
2019-02-26T10:52:35.462Z,53.48
2019-02-26T10:54:43.619Z,52.74
2019-02-26T10:56:50.708Z,53.26
2019-02-26T10:59:02.023Z,53.54
2019-02-26T11:01:06.915Z,53.39
2019-02-26T11:03:15.031Z,53.31
2019-02-26T11:05:26.186Z,52.81
2019-02-26T11:07:31.835Z,53.19
2019-02-26T11:09:38.889Z,54.10
2019-02-26T11:11:45.568Z,54.15
2019-02-26T11:13:53.823Z,53.61
2019-02-26T11:16:03.103Z,53.70
2019-02-26T11:18:11.789Z,53.17
2019-02-26T11:20:21.782Z,53.20
2019-02-26T11:22:28.654Z,53.09
2019-02-26T11:24:36.167Z,53.59
2019-02-26T11:26:43.893Z,53.42
2019-02-26T11:28:50.689Z,52.78
2019-02-26T11:30:57.389Z,53.49
2019-02-26T11:33:06.010Z,53.45
2019-02-26T11:35:19.528Z,53.96
2019-02-26T11:37:27.182Z,53.35
2019-02-26T11:39:34.208Z,53.97
2019-02-26T11:41:40.883Z,54.33
2019-02-26T11:43:47.634Z,54.81
2019-02-26T11:45:54.297Z,54.12
2019-02-26T11:48:03.797Z,54.18
2019-02-26T11:50:13.614Z,54.44
2019-02-26T11:52:20.299Z,54.93
2019-02-26T11:54:31.216Z,54.80
2019-02-26T11:56:37.403Z,54.88
2019-02-26T11:58:43.825Z,55.29
2019-02-26T12:00:52.124Z,55.63
2019-02-26T12:02:58.902Z,54.58
2019-02-26T12:05:08.136Z,54.25
2019-02-26T12:07:15.499Z,54.15
2019-02-26T12:09:22.190Z,53.61
2019-02-26T12:11:28.852Z,52.81
2019-02-26T12:13:35.514Z,52.67
2019-02-26T12:15:42.864Z,51.87
2019-02-26T12:17:54.009Z,51.99
2019-02-26T12:20:00.706Z,51.34
2019-02-26T12:22:08.596Z,51.35
2019-02-26T12:24:15.364Z,51.15
2019-02-26T12:26:25.343Z,51.27
2019-02-26T12:28:32.471Z,51.18
2019-02-26T12:30:41.496Z,50.56
2019-02-26T12:32:49.380Z,50.98
2019-02-26T12:34:55.715Z,50.74
2019-02-26T12:37:03.482Z,51.11
2019-02-26T12:39:10.797Z,51.26
2019-02-26T12:41:19.026Z,51.20
2019-02-26T12:43:26.100Z,51.00
2019-02-26T12:45:35.097Z,50.96
2019-02-26T12:47:43.136Z,51.15
2019-02-26T12:49:50.633Z,51.18
2019-02-26T12:51:59.673Z,50.91
2019-02-26T12:54:07.038Z,51.03
2019-02-26T12:56:14.549Z,51.31
2019-02-26T12:58:23.681Z,51.12
2019-02-26T13:00:29.644Z,51.27
2019-02-26T13:02:38.023Z,51.14
2019-02-26T13:04:47.237Z,51.17
2019-02-26T13:06:53.046Z,51.82
2019-02-26T13:08:59.714Z,51.97
2019-02-26T13:11:06.436Z,51.59
2019-02-26T13:13:13.139Z,51.48
2019-02-26T13:15:21.581Z,51.05
2019-02-26T13:17:32.067Z,51.05
2019-02-26T13:19:37.179Z,51.54
2019-02-26T13:21:43.970Z,51.62
2019-02-26T13:23:52.100Z,51.24
2019-02-26T13:25:58.860Z,50.90
2019-02-26T13:28:05.596Z,50.95
2019-02-26T13:30:21.833Z,50.60
2019-02-26T13:32:32.150Z,50.32
2019-02-26T13:34:36.953Z,49.97
2019-02-26T13:36:47.541Z,49.58
2019-02-26T13:38:52.012Z,48.69
2019-02-26T13:41:19.916Z,48.85
2019-02-26T13:43:09.196Z,48.27
2019-02-26T13:45:21.550Z,48.37
2019-02-26T13:47:28.369Z,48.36
2019-02-26T13:49:35.023Z,47.57
2019-02-26T13:51:42.769Z,47.12
2019-02-26T13:53:51.064Z,47.23
2019-02-26T13:55:57.796Z,47.45
2019-02-26T13:58:11.510Z,47.37
2019-02-26T14:00:15.811Z,47.47
2019-02-26T14:02:22.675Z,48.09
2019-02-26T14:04:29.350Z,48.35
2019-02-26T14:06:36.033Z,48.56
2019-02-26T14:08:42.908Z,48.59
2019-02-26T14:10:49.640Z,48.58
2019-02-26T14:12:56.379Z,48.65
2019-02-26T14:15:03.804Z,48.43
2019-02-26T14:17:11.292Z,48.60
2019-02-26T14:19:17.809Z,48.69
2019-02-26T14:21:24.470Z,48.98
2019-02-26T14:23:34.936Z,48.91
2019-02-26T14:25:39.576Z,48.78
2019-02-26T14:27:46.235Z,48.89
2019-02-26T14:29:53.395Z,48.55
2019-02-26T14:32:00.124Z,48.63
2019-02-26T14:34:06.783Z,48.37
2019-02-26T14:36:13.547Z,48.19
2019-02-26T14:38:20.197Z,48.27
2019-02-26T14:40:26.932Z,47.81
2019-02-26T14:42:35.055Z,47.94
2019-02-26T14:44:41.838Z,48.22
2019-02-26T14:46:48.419Z,48.55
2019-02-26T14:48:55.317Z,48.56
2019-02-26T14:51:02.039Z,48.73
2019-02-26T14:53:08.690Z,48.79
2019-02-26T14:55:16.968Z,48.88
2019-02-26T14:57:23.611Z,48.58
2019-02-26T14:59:30.361Z,48.51
2019-02-26T15:01:37.125Z,48.58
2019-02-26T15:03:43.779Z,48.87
2019-02-26T15:05:50.728Z,48.99
2019-02-26T15:07:57.423Z,48.97
2019-02-26T15:10:06.358Z,48.80
2019-02-26T15:12:13.007Z,48.76
2019-02-26T15:14:19.695Z,48.86
2019-02-26T15:16:26.357Z,49.01
2019-02-26T15:18:35.665Z,49.36
2019-02-26T15:20:41.641Z,49.06
2019-02-26T15:22:48.586Z,49.52
2019-02-26T15:24:55.710Z,49.79
2019-02-26T15:27:02.468Z,50.12
2019-02-26T15:29:09.183Z,50.37
2019-02-26T15:31:16.018Z,50.34
2019-02-26T15:33:22.719Z,50.60
2019-02-26T15:35:29.454Z,50.80
2019-02-26T15:37:36.197Z,50.70
2019-02-26T15:39:42.964Z,50.97
2019-02-26T15:41:50.573Z,51.10
2019-02-26T15:43:57.363Z,51.18
2019-02-26T15:46:04.133Z,51.49
2019-02-26T15:48:10.795Z,51.71
2019-02-26T15:50:19.723Z,51.63
2019-02-26T15:52:26.538Z,51.81
2019-02-26T15:54:33.262Z,52.09
2019-02-26T15:56:40.111Z,52.54
2019-02-26T15:58:46.830Z,52.60
2019-02-26T16:00:53.563Z,52.71
2019-02-26T16:03:00.295Z,52.82
2019-02-26T16:05:10.763Z,53.06
2019-02-26T16:07:17.505Z,53.37
2019-02-26T16:09:24.239Z,53.59
2019-02-26T16:11:30.925Z,53.63
2019-02-26T16:13:37.657Z,53.69
2019-02-26T16:15:44.322Z,53.93
2019-02-26T16:17:51.476Z,54.20
2019-02-26T16:19:58.134Z,54.39
2019-02-26T16:22:04.871Z,54.59
2019-02-26T16:24:11.548Z,54.81
2019-02-26T16:26:18.287Z,54.85
2019-02-26T16:28:27.246Z,55.08
2019-02-26T16:30:33.629Z,55.18
2019-02-26T16:32:40.305Z,55.48
2019-02-26T16:34:47.401Z,55.64
2019-02-26T16:36:54.154Z,55.84
2019-02-26T16:39:00.814Z,56.04
2019-02-26T16:41:09.065Z,56.27
2019-02-26T16:43:17.248Z,56.42
2019-02-26T16:45:28.439Z,56.59
2019-02-26T16:47:35.159Z,56.70
2019-02-26T16:49:41.943Z,56.81
2019-02-26T16:51:48.839Z,56.92
2019-02-26T16:53:55.495Z,56.98
2019-02-26T16:56:02.266Z,57.03
2019-02-26T16:58:08.927Z,57.17
2019-02-26T17:00:20.606Z,57.17
2019-02-26T17:02:28.041Z,57.06
2019-02-26T17:04:34.738Z,57.04
2019-02-26T17:06:41.398Z,57.05
2019-02-26T17:08:48.150Z,57.12
2019-02-26T17:10:54.882Z,57.25
2019-02-26T17:13:02.869Z,57.30
2019-02-26T17:15:14.502Z,57.30
2019-02-26T17:17:21.179Z,57.55
2019-02-26T17:19:27.863Z,57.65
2019-02-26T17:21:34.533Z,57.71
2019-02-26T17:23:41.383Z,57.64
2019-02-26T17:25:48.356Z,57.55
2019-02-26T17:27:55.425Z,57.44
2019-02-26T17:30:02.149Z,57.45
2019-02-26T17:32:09.885Z,57.40
2019-02-26T17:34:17.711Z,57.30
2019-02-26T17:36:25.143Z,57.30
2019-02-26T17:38:31.880Z,57.35
2019-02-26T17:40:38.807Z,57.39
2019-02-26T17:42:45.537Z,57.19
2019-02-26T17:44:54.638Z,57.16
2019-02-26T17:47:01.414Z,57.16
2019-02-26T17:49:08.253Z,57.16
2019-02-26T17:51:18.777Z,57.17
2019-02-26T17:53:23.456Z,57.26
2019-02-26T17:55:31.318Z,57.05
2019-02-26T17:57:37.958Z,57.14
2019-02-26T17:59:44.684Z,57.23
2019-02-26T18:01:51.478Z,57.41
2019-02-26T18:03:58.248Z,57.61
2019-02-26T18:06:06.533Z,57.73
2019-02-26T18:08:16.820Z,57.92
2019-02-26T18:10:26.781Z,57.90
2019-02-26T18:12:33.453Z,58.08
2019-02-26T18:14:40.116Z,58.25
2019-02-26T18:16:47.568Z,58.34
2019-02-26T18:18:54.233Z,58.55
2019-02-26T18:21:00.894Z,58.78
2019-02-26T18:23:07.662Z,58.94
2019-02-26T18:25:18.006Z,59.24
2019-02-26T18:27:24.674Z,59.45
2019-02-26T18:29:31.395Z,59.39
2019-02-26T18:31:38.858Z,59.56
2019-02-26T18:33:45.529Z,59.54
2019-02-26T18:35:52.266Z,59.64
2019-02-26T18:37:59.352Z,59.81
2019-02-26T18:40:10.337Z,59.97
2019-02-26T18:42:18.482Z,60.09
2019-02-26T18:44:25.189Z,60.38
2019-02-26T18:46:33.731Z,60.77
2019-02-26T18:48:40.435Z,60.96
2019-02-26T18:50:47.090Z,61.32
2019-02-26T18:52:53.825Z,61.58
2019-02-26T18:55:01.832Z,61.83
2019-02-26T18:57:11.720Z,62.05
2019-02-26T18:59:21.599Z,62.42
2019-02-26T19:01:28.437Z,62.60
2019-02-26T19:03:39.347Z,62.96
2019-02-26T19:05:46.393Z,63.24
2019-02-26T19:07:54.512Z,63.65
2019-02-26T19:10:01.277Z,63.78
2019-02-26T19:12:09.535Z,64.10
2019-02-26T19:14:16.262Z,64.38
2019-02-26T19:16:24.792Z,64.50
2019-02-26T19:18:35.525Z,64.39
2019-02-26T19:20:42.010Z,64.47
2019-02-26T19:22:48.704Z,64.70
2019-02-26T19:24:56.966Z,64.92
2019-02-26T19:27:03.674Z,65.23
2019-02-26T19:29:10.358Z,65.06
2019-02-26T19:31:17.026Z,65.38
2019-02-26T19:33:24.303Z,65.51
2019-02-26T19:35:38.109Z,65.36
2019-02-26T19:37:41.398Z,65.74
2019-02-26T19:39:48.134Z,65.63
2019-02-26T19:41:54.820Z,65.79
2019-02-26T19:44:01.488Z,65.68
2019-02-26T19:46:08.698Z,65.70
2019-02-26T19:48:16.712Z,65.99
2019-02-26T19:50:24.632Z,66.19
2019-02-26T19:52:31.365Z,66.35
2019-02-26T19:54:41.990Z,66.65
2019-02-26T19:56:48.124Z,66.69
2019-02-26T19:58:54.792Z,66.79
2019-02-26T20:01:01.489Z,67.07
2019-02-26T20:03:08.343Z,66.99
2019-02-26T20:05:19.531Z,67.14
2019-02-26T20:07:26.217Z,67.26
2019-02-26T20:09:38.599Z,67.57
2019-02-26T20:11:42.944Z,67.71
2019-02-26T20:13:51.413Z,67.69
2019-02-26T20:15:59.261Z,67.79
2019-02-26T20:18:05.991Z,67.87
2019-02-26T20:20:19.138Z,67.89
2019-02-26T20:22:30.116Z,68.05
2019-02-26T20:24:36.038Z,68.17
2019-02-26T20:26:42.808Z,68.33
2019-02-26T20:28:51.303Z,68.31
2019-02-26T20:30:57.969Z,68.56
2019-02-26T20:33:04.935Z,68.69
2019-02-26T20:35:16.039Z,68.90
2019-02-26T20:37:24.433Z,68.84
2019-02-26T20:39:34.361Z,68.91
2019-02-26T20:41:42.626Z,69.04
2019-02-26T20:43:53.672Z,69.22
2019-02-26T20:46:01.871Z,69.29
2019-02-26T20:48:08.710Z,69.34
2019-02-26T20:50:19.993Z,69.47
2019-02-26T20:52:24.713Z,69.55
2019-02-26T20:54:32.847Z,69.59
2019-02-26T20:56:41.043Z,69.69
2019-02-26T20:58:47.940Z,69.89
2019-02-26T21:00:58.649Z,69.97
2019-02-26T21:03:08.264Z,70.31
2019-02-26T21:05:15.320Z,70.47
2019-02-26T21:07:24.499Z,70.36
2019-02-26T21:09:32.273Z,70.48
2019-02-26T21:11:39.039Z,70.59
2019-02-26T21:13:46.278Z,70.67
2019-02-26T21:15:53.008Z,70.92
2019-02-26T21:18:01.495Z,70.88
2019-02-26T21:20:12.624Z,71.02
2019-02-26T21:22:21.998Z,71.04
2019-02-26T21:24:29.180Z,71.15
2019-02-26T21:26:37.291Z,71.13
2019-02-26T21:28:44.027Z,71.28
2019-02-26T21:30:53.824Z,71.17
2019-02-26T21:33:00.621Z,71.40
2019-02-26T21:35:09.339Z,71.38
2019-02-26T21:37:16.031Z,71.52
2019-02-26T21:39:22.686Z,71.62
2019-02-26T21:41:29.383Z,71.71
2019-02-26T21:43:36.107Z,71.78
2019-02-26T21:45:44.508Z,71.89
2019-02-26T21:47:51.266Z,71.90
2019-02-26T21:49:58.015Z,71.95
2019-02-26T21:52:08.723Z,71.96
2019-02-26T21:54:13.102Z,72.17
2019-02-26T21:56:19.794Z,72.21
2019-02-26T21:58:26.854Z,72.23
2019-02-26T22:00:34.184Z,72.42
2019-02-26T22:02:40.874Z,72.57
2019-02-26T22:04:47.531Z,72.62
2019-02-26T22:06:54.268Z,72.64
2019-02-26T22:09:01.029Z,72.71
2019-02-26T22:11:09.314Z,72.86
2019-02-26T22:13:17.618Z,73.17
2019-02-26T22:15:24.507Z,73.23
2019-02-26T22:17:31.163Z,73.29
2019-02-26T22:19:40.150Z,73.34
2019-02-26T22:21:52.145Z,73.41
2019-02-26T22:23:59.410Z,73.42
2019-02-26T22:26:06.137Z,73.50
2019-02-26T22:28:12.841Z,73.59
2019-02-26T22:30:22.095Z,73.71
2019-02-26T22:32:28.704Z,73.86
2019-02-26T22:34:35.378Z,74.09
2019-02-26T22:36:42.041Z,74.13
2019-02-26T22:38:49.075Z,74.26
2019-02-26T22:40:56.482Z,74.44
2019-02-26T22:43:03.140Z,74.48
2019-02-26T22:45:13.039Z,74.61
2019-02-26T22:47:19.744Z,74.58
2019-02-26T22:49:26.447Z,74.74
2019-02-26T22:51:33.178Z,74.83
2019-02-26T22:53:39.927Z,75.07
2019-02-26T22:55:49.600Z,75.04
2019-02-26T22:57:54.956Z,75.23
2019-02-26T23:00:01.648Z,75.24
2019-02-26T23:02:09.825Z,75.43
2019-02-26T23:04:19.842Z,75.53
2019-02-26T23:06:26.683Z,75.66
2019-02-26T23:08:34.414Z,75.68
2019-02-26T23:10:41.381Z,75.94
2019-02-26T23:12:49.167Z,76.01
2019-02-26T23:14:56.334Z,76.23
2019-02-26T23:17:04.727Z,76.18
2019-02-26T23:19:11.623Z,76.27
2019-02-26T23:21:20.782Z,76.42
2019-02-26T23:23:27.827Z,76.50
2019-02-26T23:25:36.700Z,76.59
2019-02-26T23:27:46.116Z,76.75
2019-02-26T23:29:52.051Z,76.79
2019-02-26T23:31:58.834Z,76.83
2019-02-26T23:34:05.504Z,76.97
2019-02-26T23:36:12.765Z,77.09
2019-02-26T23:38:19.463Z,77.08
2019-02-26T23:40:27.471Z,77.32
2019-02-26T23:42:38.568Z,77.33
2019-02-26T23:44:43.044Z,77.45
2019-02-26T23:46:49.702Z,77.44
2019-02-26T23:48:56.439Z,77.49
2019-02-26T23:51:03.121Z,77.77
2019-02-26T23:53:09.780Z,77.72
2019-02-26T23:55:16.449Z,77.86
2019-02-26T23:57:25.049Z,77.91
2019-02-26T23:59:34.815Z,78.15
